sensor_id;sensor_type;location;lat;lon;timestamp;P1;durP1;ratioP1;P2;durP2;ratioP2
16662;SDS011;8445;51.270;9.434;2024-02-23T00:02:14;5.70;;;5.50;;
16662;SDS011;8445;51.270;9.434;2024-02-23T00:04:40;6.17;;;5.67;;
16662;SDS011;8445;51.270;9.434;2024-02-23T00:07:07;6.00;;;5.60;;
16662;SDS011;8445;51.270;9.434;2024-02-23T00:09:33;5.70;;;5.50;;
16662;SDS011;8445;51.270;9.434;2024-02-23T00:12:00;6.28;;;5.80;;
16662;SDS011;8445;51.270;9.434;2024-02-23T00:14:27;5.50;;;5.30;;
16662;SDS011;8445;51.270;9.434;2024-02-23T00:16:56;5.30;;;5.10;;
16662;SDS011;8445;51.270;9.434;2024-02-23T00:19:24;5.40;;;5.00;;
16662;SDS011;8445;51.270;9.434;2024-02-23T00:21:50;5.60;;;5.30;;
16662;SDS011;8445;51.270;9.434;2024-02-23T00:24:17;5.63;;;5.43;;
16662;SDS011;8445;51.270;9.434;2024-02-23T00:26:46;5.60;;;5.40;;
16662;SDS011;8445;51.270;9.434;2024-02-23T00:29:13;5.70;;;5.40;;
16662;SDS011;8445;51.270;9.434;2024-02-23T00:31:42;6.68;;;5.85;;
16662;SDS011;8445;51.270;9.434;2024-02-23T00:34:12;5.80;;;5.60;;
16662;SDS011;8445;51.270;9.434;2024-02-23T00:36:41;5.70;;;5.40;;
16662;SDS011;8445;51.270;9.434;2024-02-23T00:39:09;5.70;;;5.40;;
16662;SDS011;8445;51.270;9.434;2024-02-23T00:41:36;5.57;;;5.20;;
16662;SDS011;8445;51.270;9.434;2024-02-23T00:44:02;5.95;;;5.57;;
16662;SDS011;8445;51.270;9.434;2024-02-23T00:46:28;5.38;;;5.18;;
16662;SDS011;8445;51.270;9.434;2024-02-23T00:48:54;6.32;;;5.80;;
16662;SDS011;8445;51.270;9.434;2024-02-23T00:51:20;5.95;;;5.55;;
16662;SDS011;8445;51.270;9.434;2024-02-23T00:53:47;6.10;;;5.60;;
16662;SDS011;8445;51.270;9.434;2024-02-23T00:56:13;6.85;;;5.90;;
16662;SDS011;8445;51.270;9.434;2024-02-23T00:58:39;5.67;;;5.47;;
16662;SDS011;8445;51.270;9.434;2024-02-23T01:01:05;5.90;;;5.60;;
16662;SDS011;8445;51.270;9.434;2024-02-23T01:03:31;5.77;;;5.50;;
16662;SDS011;8445;51.270;9.434;2024-02-23T01:05:58;5.70;;;5.40;;
16662;SDS011;8445;51.270;9.434;2024-02-23T01:08:23;5.63;;;5.30;;
16662;SDS011;8445;51.270;9.434;2024-02-23T01:10:49;5.13;;;4.93;;
16662;SDS011;8445;51.270;9.434;2024-02-23T01:13:15;5.63;;;5.33;;
16662;SDS011;8445;51.270;9.434;2024-02-23T01:15:41;5.88;;;5.47;;
16662;SDS011;8445;51.270;9.434;2024-02-23T01:18:07;5.40;;;5.20;;
16662;SDS011;8445;51.270;9.434;2024-02-23T01:20:33;5.20;;;5.00;;
16662;SDS011;8445;51.270;9.434;2024-02-23T01:22:59;5.40;;;5.00;;
16662;SDS011;8445;51.270;9.434;2024-02-23T01:25:26;5.50;;;5.30;;
16662;SDS011;8445;51.270;9.434;2024-02-23T01:27:52;5.23;;;5.03;;
16662;SDS011;8445;51.270;9.434;2024-02-23T01:30:18;5.60;;;5.30;;
16662;SDS011;8445;51.270;9.434;2024-02-23T01:32:47;5.30;;;5.10;;
16662;SDS011;8445;51.270;9.434;2024-02-23T01:35:16;5.40;;;5.20;;
16662;SDS011;8445;51.270;9.434;2024-02-23T01:37:41;5.80;;;5.60;;
16662;SDS011;8445;51.270;9.434;2024-02-23T01:40:07;6.10;;;5.60;;
16662;SDS011;8445;51.270;9.434;2024-02-23T01:42:34;5.20;;;5.00;;
16662;SDS011;8445;51.270;9.434;2024-02-23T01:45:00;5.50;;;5.30;;
16662;SDS011;8445;51.270;9.434;2024-02-23T01:47:27;5.60;;;5.40;;
16662;SDS011;8445;51.270;9.434;2024-02-23T01:49:55;5.70;;;5.40;;
16662;SDS011;8445;51.270;9.434;2024-02-23T01:52:24;5.30;;;5.10;;
16662;SDS011;8445;51.270;9.434;2024-02-23T01:54:51;7.10;;;5.33;;
16662;SDS011;8445;51.270;9.434;2024-02-23T01:57:18;5.90;;;5.50;;
16662;SDS011;8445;51.270;9.434;2024-02-23T01:59:46;5.40;;;5.20;;
16662;SDS011;8445;51.270;9.434;2024-02-23T02:02:13;5.47;;;5.27;;
16662;SDS011;8445;51.270;9.434;2024-02-23T02:04:40;5.60;;;5.40;;
16662;SDS011;8445;51.270;9.434;2024-02-23T02:07:06;5.60;;;5.30;;
16662;SDS011;8445;51.270;9.434;2024-02-23T02:09:32;5.50;;;5.30;;
16662;SDS011;8445;51.270;9.434;2024-02-23T02:11:58;6.07;;;5.50;;
16662;SDS011;8445;51.270;9.434;2024-02-23T02:14:24;5.70;;;5.40;;
16662;SDS011;8445;51.270;9.434;2024-02-23T02:16:51;5.90;;;5.63;;
16662;SDS011;8445;51.270;9.434;2024-02-23T02:19:16;5.40;;;5.20;;
16662;SDS011;8445;51.270;9.434;2024-02-23T02:21:42;5.60;;;5.40;;
16662;SDS011;8445;51.270;9.434;2024-02-23T02:24:08;5.43;;;5.23;;
16662;SDS011;8445;51.270;9.434;2024-02-23T02:26:34;5.60;;;5.40;;
16662;SDS011;8445;51.270;9.434;2024-02-23T02:29:02;5.60;;;5.40;;
16662;SDS011;8445;51.270;9.434;2024-02-23T02:31:29;5.60;;;5.40;;
16662;SDS011;8445;51.270;9.434;2024-02-23T02:33:55;5.70;;;5.50;;
16662;SDS011;8445;51.270;9.434;2024-02-23T02:36:20;5.73;;;5.50;;
16662;SDS011;8445;51.270;9.434;2024-02-23T02:38:46;5.53;;;5.33;;
16662;SDS011;8445;51.270;9.434;2024-02-23T02:41:12;5.40;;;5.20;;
16662;SDS011;8445;51.270;9.434;2024-02-23T02:43:38;6.03;;;5.73;;
16662;SDS011;8445;51.270;9.434;2024-02-23T02:46:04;5.93;;;5.63;;
16662;SDS011;8445;51.270;9.434;2024-02-23T02:48:30;5.40;;;5.20;;
16662;SDS011;8445;51.270;9.434;2024-02-23T02:50:56;5.60;;;5.40;;
16662;SDS011;8445;51.270;9.434;2024-02-23T02:53:22;6.00;;;5.80;;
16662;SDS011;8445;51.270;9.434;2024-02-23T02:55:48;6.07;;;5.87;;
16662;SDS011;8445;51.270;9.434;2024-02-23T02:58:14;5.80;;;5.60;;
16662;SDS011;8445;51.270;9.434;2024-02-23T03:00:39;5.73;;;5.53;;
16662;SDS011;8445;51.270;9.434;2024-02-23T03:03:06;6.00;;;5.80;;
16662;SDS011;8445;51.270;9.434;2024-02-23T03:05:32;5.73;;;5.50;;
16662;SDS011;8445;51.270;9.434;2024-02-23T03:07:58;5.50;;;5.30;;
16662;SDS011;8445;51.270;9.434;2024-02-23T03:10:24;5.73;;;5.53;;
16662;SDS011;8445;51.270;9.434;2024-02-23T03:12:50;5.73;;;5.53;;
16662;SDS011;8445;51.270;9.434;2024-02-23T03:15:15;5.97;;;5.77;;
16662;SDS011;8445;51.270;9.434;2024-02-23T03:17:41;5.97;;;5.77;;
16662;SDS011;8445;51.270;9.434;2024-02-23T03:20:07;5.70;;;5.50;;
16662;SDS011;8445;51.270;9.434;2024-02-23T03:22:37;5.90;;;5.70;;
16662;SDS011;8445;51.270;9.434;2024-02-23T03:25:03;5.90;;;5.70;;
16662;SDS011;8445;51.270;9.434;2024-02-23T03:27:33;6.10;;;5.90;;
16662;SDS011;8445;51.270;9.434;2024-02-23T03:30:02;5.90;;;5.70;;
16662;SDS011;8445;51.270;9.434;2024-02-23T03:32:29;5.80;;;5.50;;
16662;SDS011;8445;51.270;9.434;2024-02-23T03:35:01;5.70;;;5.50;;
16662;SDS011;8445;51.270;9.434;2024-02-23T03:37:31;6.03;;;5.47;;
16662;SDS011;8445;51.270;9.434;2024-02-23T03:39:57;5.57;;;5.37;;
16662;SDS011;8445;51.270;9.434;2024-02-23T03:42:25;5.57;;;5.37;;
16662;SDS011;8445;51.270;9.434;2024-02-23T03:44:51;5.67;;;5.47;;
16662;SDS011;8445;51.270;9.434;2024-02-23T03:47:17;6.00;;;5.80;;
16662;SDS011;8445;51.270;9.434;2024-02-23T03:49:43;5.90;;;5.70;;
16662;SDS011;8445;51.270;9.434;2024-02-23T03:52:09;6.17;;;5.87;;
16662;SDS011;8445;51.270;9.434;2024-02-23T03:54:35;5.40;;;5.20;;
16662;SDS011;8445;51.270;9.434;2024-02-23T03:57:01;5.53;;;5.10;;
16662;SDS011;8445;51.270;9.434;2024-02-23T03:59:27;5.20;;;5.00;;
16662;SDS011;8445;51.270;9.434;2024-02-23T04:01:53;5.60;;;5.40;;
16662;SDS011;8445;51.270;9.434;2024-02-23T04:04:19;5.10;;;4.90;;
16662;SDS011;8445;51.270;9.434;2024-02-23T04:06:45;5.80;;;5.50;;
16662;SDS011;8445;51.270;9.434;2024-02-23T04:09:11;5.70;;;5.50;;
16662;SDS011;8445;51.270;9.434;2024-02-23T04:11:37;6.23;;;5.83;;
16662;SDS011;8445;51.270;9.434;2024-02-23T04:14:03;5.90;;;5.70;;
16662;SDS011;8445;51.270;9.434;2024-02-23T04:16:32;5.60;;;5.40;;
16662;SDS011;8445;51.270;9.434;2024-02-23T04:18:58;5.90;;;5.60;;
16662;SDS011;8445;51.270;9.434;2024-02-23T04:21:25;5.30;;;5.10;;
16662;SDS011;8445;51.270;9.434;2024-02-23T04:23:51;5.90;;;5.40;;
16662;SDS011;8445;51.270;9.434;2024-02-23T04:26:17;6.10;;;5.90;;
16662;SDS011;8445;51.270;9.434;2024-02-23T04:28:44;5.47;;;5.27;;
16662;SDS011;8445;51.270;9.434;2024-02-23T04:31:09;6.23;;;5.97;;
16662;SDS011;8445;51.270;9.434;2024-02-23T04:33:36;6.30;;;5.80;;
16662;SDS011;8445;51.270;9.434;2024-02-23T04:36:03;5.90;;;5.70;;
16662;SDS011;8445;51.270;9.434;2024-02-23T04:38:30;5.77;;;5.47;;
16662;SDS011;8445;51.270;9.434;2024-02-23T04:40:56;6.00;;;5.70;;
16662;SDS011;8445;51.270;9.434;2024-02-23T04:43:23;5.87;;;5.33;;
16662;SDS011;8445;51.270;9.434;2024-02-23T04:45:50;5.70;;;5.50;;
16662;SDS011;8445;51.270;9.434;2024-02-23T04:48:17;5.53;;;5.33;;
16662;SDS011;8445;51.270;9.434;2024-02-23T04:50:43;5.50;;;5.00;;
16662;SDS011;8445;51.270;9.434;2024-02-23T04:53:09;5.40;;;5.00;;
16662;SDS011;8445;51.270;9.434;2024-02-23T04:55:35;5.80;;;5.23;;
16662;SDS011;8445;51.270;9.434;2024-02-23T04:58:00;5.30;;;5.10;;
16662;SDS011;8445;51.270;9.434;2024-02-23T05:00:26;5.50;;;5.20;;
16662;SDS011;8445;51.270;9.434;2024-02-23T05:02:58;5.50;;;5.30;;
16662;SDS011;8445;51.270;9.434;2024-02-23T05:05:28;5.50;;;5.30;;
16662;SDS011;8445;51.270;9.434;2024-02-23T05:07:56;5.47;;;5.27;;
16662;SDS011;8445;51.270;9.434;2024-02-23T05:10:22;6.10;;;5.70;;
16662;SDS011;8445;51.270;9.434;2024-02-23T05:12:49;6.00;;;5.60;;
16662;SDS011;8445;51.270;9.434;2024-02-23T05:15:15;5.20;;;5.00;;
16662;SDS011;8445;51.270;9.434;2024-02-23T05:17:40;5.73;;;5.47;;
16662;SDS011;8445;51.270;9.434;2024-02-23T05:20:07;5.90;;;5.47;;
16662;SDS011;8445;51.270;9.434;2024-02-23T05:22:38;5.60;;;5.20;;
16662;SDS011;8445;51.270;9.434;2024-02-23T05:25:05;5.73;;;5.30;;
16662;SDS011;8445;51.270;9.434;2024-02-23T05:27:31;5.80;;;5.50;;
16662;SDS011;8445;51.270;9.434;2024-02-23T05:29:58;5.60;;;5.40;;
16662;SDS011;8445;51.270;9.434;2024-02-23T05:32:26;5.20;;;5.00;;
16662;SDS011;8445;51.270;9.434;2024-02-23T05:34:52;5.57;;;5.37;;
16662;SDS011;8445;51.270;9.434;2024-02-23T05:37:19;5.30;;;5.10;;
16662;SDS011;8445;51.270;9.434;2024-02-23T05:39:45;5.53;;;5.23;;
16662;SDS011;8445;51.270;9.434;2024-02-23T05:42:11;6.10;;;5.63;;
16662;SDS011;8445;51.270;9.434;2024-02-23T05:44:38;5.50;;;5.30;;
16662;SDS011;8445;51.270;9.434;2024-02-23T05:47:05;8.33;;;6.00;;
16662;SDS011;8445;51.270;9.434;2024-02-23T05:49:31;5.83;;;5.53;;
16662;SDS011;8445;51.270;9.434;2024-02-23T05:51:57;5.67;;;4.90;;
16662;SDS011;8445;51.270;9.434;2024-02-23T05:54:22;5.67;;;5.37;;
16662;SDS011;8445;51.270;9.434;2024-02-23T05:56:48;5.17;;;4.97;;
16662;SDS011;8445;51.270;9.434;2024-02-23T05:59:14;6.30;;;5.80;;
16662;SDS011;8445;51.270;9.434;2024-02-23T06:01:40;5.07;;;4.87;;
16662;SDS011;8445;51.270;9.434;2024-02-23T06:04:06;5.20;;;5.00;;
16662;SDS011;8445;51.270;9.434;2024-02-23T06:06:32;5.07;;;4.87;;
16662;SDS011;8445;51.270;9.434;2024-02-23T06:08:58;5.70;;;5.20;;
16662;SDS011;8445;51.270;9.434;2024-02-23T06:11:25;5.57;;;5.27;;
16662;SDS011;8445;51.270;9.434;2024-02-23T06:13:51;5.87;;;5.43;;
16662;SDS011;8445;51.270;9.434;2024-02-23T06:16:17;5.73;;;5.43;;
16662;SDS011;8445;51.270;9.434;2024-02-23T06:18:43;6.20;;;5.83;;
16662;SDS011;8445;51.270;9.434;2024-02-23T06:21:12;10.30;;;6.00;;
16662;SDS011;8445;51.270;9.434;2024-02-23T06:23:39;6.30;;;5.80;;
16662;SDS011;8445;51.270;9.434;2024-02-23T06:26:06;7.33;;;6.90;;
16662;SDS011;8445;51.270;9.434;2024-02-23T06:28:33;6.30;;;5.90;;
16662;SDS011;8445;51.270;9.434;2024-02-23T06:30:59;6.13;;;5.53;;
16662;SDS011;8445;51.270;9.434;2024-02-23T06:33:25;5.53;;;5.10;;
16662;SDS011;8445;51.270;9.434;2024-02-23T06:35:51;6.00;;;5.60;;
16662;SDS011;8445;51.270;9.434;2024-02-23T06:38:17;6.03;;;5.63;;
16662;SDS011;8445;51.270;9.434;2024-02-23T06:40:43;5.60;;;5.30;;
16662;SDS011;8445;51.270;9.434;2024-02-23T06:43:09;5.40;;;4.90;;
16662;SDS011;8445;51.270;9.434;2024-02-23T06:45:35;6.17;;;5.77;;
16662;SDS011;8445;51.270;9.434;2024-02-23T06:48:01;5.07;;;4.87;;
16662;SDS011;8445;51.270;9.434;2024-02-23T06:50:29;4.90;;;4.70;;
16662;SDS011;8445;51.270;9.434;2024-02-23T06:52:55;5.20;;;4.90;;
16662;SDS011;8445;51.270;9.434;2024-02-23T06:55:21;5.10;;;4.80;;
16662;SDS011;8445;51.270;9.434;2024-02-23T06:57:46;4.63;;;4.43;;
16662;SDS011;8445;51.270;9.434;2024-02-23T07:00:13;5.47;;;5.07;;
16662;SDS011;8445;51.270;9.434;2024-02-23T07:02:39;4.90;;;4.70;;
16662;SDS011;8445;51.270;9.434;2024-02-23T07:05:05;5.47;;;5.20;;
16662;SDS011;8445;51.270;9.434;2024-02-23T07:07:32;5.63;;;5.23;;
16662;SDS011;8445;51.270;9.434;2024-02-23T07:09:59;4.53;;;4.33;;
16662;SDS011;8445;51.270;9.434;2024-02-23T07:12:26;4.30;;;4.00;;
16662;SDS011;8445;51.270;9.434;2024-02-23T07:14:54;4.67;;;4.47;;
16662;SDS011;8445;51.270;9.434;2024-02-23T07:17:21;4.93;;;4.57;;
16662;SDS011;8445;51.270;9.434;2024-02-23T07:19:47;5.17;;;4.80;;
16662;SDS011;8445;51.270;9.434;2024-02-23T07:22:13;4.90;;;4.50;;
16662;SDS011;8445;51.270;9.434;2024-02-23T07:24:41;11.27;;;5.73;;
16662;SDS011;8445;51.270;9.434;2024-02-23T07:27:07;6.97;;;5.40;;
16662;SDS011;8445;51.270;9.434;2024-02-23T07:29:33;4.80;;;4.60;;
16662;SDS011;8445;51.270;9.434;2024-02-23T07:31:59;4.80;;;4.40;;
16662;SDS011;8445;51.270;9.434;2024-02-23T07:34:25;4.70;;;4.50;;
16662;SDS011;8445;51.270;9.434;2024-02-23T07:36:52;4.90;;;4.47;;
16662;SDS011;8445;51.270;9.434;2024-02-23T07:39:18;5.40;;;4.70;;
16662;SDS011;8445;51.270;9.434;2024-02-23T07:41:45;4.90;;;4.60;;
16662;SDS011;8445;51.270;9.434;2024-02-23T07:44:11;5.93;;;4.40;;
16662;SDS011;8445;51.270;9.434;2024-02-23T07:46:37;5.07;;;4.70;;
16662;SDS011;8445;51.270;9.434;2024-02-23T07:49:05;5.50;;;4.97;;
16662;SDS011;8445;51.270;9.434;2024-02-23T07:51:31;5.37;;;5.07;;
16662;SDS011;8445;51.270;9.434;2024-02-23T07:53:57;6.07;;;5.50;;
16662;SDS011;8445;51.270;9.434;2024-02-23T07:56:23;5.33;;;4.97;;
16662;SDS011;8445;51.270;9.434;2024-02-23T07:58:49;5.73;;;5.33;;
16662;SDS011;8445;51.270;9.434;2024-02-23T08:01:18;10.30;;;5.10;;
16662;SDS011;8445;51.270;9.434;2024-02-23T08:03:44;5.23;;;4.93;;
16662;SDS011;8445;51.270;9.434;2024-02-23T08:06:09;5.50;;;5.07;;
16662;SDS011;8445;51.270;9.434;2024-02-23T08:08:38;5.17;;;4.67;;
16662;SDS011;8445;51.270;9.434;2024-02-23T08:11:04;5.07;;;4.43;;
16662;SDS011;8445;51.270;9.434;2024-02-23T08:13:30;4.60;;;4.40;;
16662;SDS011;8445;51.270;9.434;2024-02-23T08:15:57;4.43;;;4.23;;
16662;SDS011;8445;51.270;9.434;2024-02-23T08:18:23;6.50;;;4.83;;
16662;SDS011;8445;51.270;9.434;2024-02-23T08:20:49;9.00;;;4.73;;
16662;SDS011;8445;51.270;9.434;2024-02-23T08:23:15;4.80;;;4.30;;
16662;SDS011;8445;51.270;9.434;2024-02-23T08:25:41;4.40;;;4.20;;
16662;SDS011;8445;51.270;9.434;2024-02-23T08:28:07;4.80;;;4.50;;
16662;SDS011;8445;51.270;9.434;2024-02-23T08:30:33;5.22;;;4.53;;
16662;SDS011;8445;51.270;9.434;2024-02-23T08:32:59;4.60;;;4.30;;
16662;SDS011;8445;51.270;9.434;2024-02-23T08:35:25;4.10;;;3.90;;
16662;SDS011;8445;51.270;9.434;2024-02-23T08:37:51;5.90;;;4.17;;
16662;SDS011;8445;51.270;9.434;2024-02-23T08:40:17;4.53;;;4.00;;
16662;SDS011;8445;51.270;9.434;2024-02-23T08:42:43;4.10;;;3.90;;
16662;SDS011;8445;51.270;9.434;2024-02-23T08:45:09;4.30;;;4.10;;
16662;SDS011;8445;51.270;9.434;2024-02-23T08:47:38;4.13;;;3.75;;
16662;SDS011;8445;51.270;9.434;2024-02-23T08:50:06;4.03;;;3.83;;
16662;SDS011;8445;51.270;9.434;2024-02-23T08:52:32;4.10;;;3.90;;
16662;SDS011;8445;51.270;9.434;2024-02-23T08:54:58;4.25;;;3.95;;
16662;SDS011;8445;51.270;9.434;2024-02-23T08:57:25;4.50;;;4.20;;
16662;SDS011;8445;51.270;9.434;2024-02-23T08:59:52;4.30;;;3.90;;
16662;SDS011;8445;51.270;9.434;2024-02-23T09:02:19;4.07;;;3.77;;
16662;SDS011;8445;51.270;9.434;2024-02-23T09:04:45;4.00;;;3.73;;
16662;SDS011;8445;51.270;9.434;2024-02-23T09:07:11;3.80;;;3.67;;
16662;SDS011;8445;51.270;9.434;2024-02-23T09:09:38;4.38;;;4.00;;
16662;SDS011;8445;51.270;9.434;2024-02-23T09:12:04;4.63;;;4.23;;
16662;SDS011;8445;51.270;9.434;2024-02-23T09:14:32;3.97;;;3.78;;
16662;SDS011;8445;51.270;9.434;2024-02-23T09:17:01;4.10;;;3.80;;
16662;SDS011;8445;51.270;9.434;2024-02-23T09:19:26;5.30;;;4.65;;
16662;SDS011;8445;51.270;9.434;2024-02-23T09:21:52;5.07;;;4.67;;
16662;SDS011;8445;51.270;9.434;2024-02-23T09:24:18;8.47;;;4.10;;
16662;SDS011;8445;51.270;9.434;2024-02-23T09:26:46;7.57;;;4.80;;
16662;SDS011;8445;51.270;9.434;2024-02-23T09:29:13;4.78;;;4.35;;
16662;SDS011;8445;51.270;9.434;2024-02-23T09:31:39;4.63;;;4.30;;
16662;SDS011;8445;51.270;9.434;2024-02-23T09:34:05;6.38;;;5.05;;
16662;SDS011;8445;51.270;9.434;2024-02-23T09:36:31;4.83;;;4.43;;
16662;SDS011;8445;51.270;9.434;2024-02-23T09:38:57;8.10;;;4.40;;
16662;SDS011;8445;51.270;9.434;2024-02-23T09:41:23;4.80;;;4.55;;
16662;SDS011;8445;51.270;9.434;2024-02-23T09:43:49;4.95;;;4.65;;
16662;SDS011;8445;51.270;9.434;2024-02-23T09:46:18;5.32;;;4.90;;
16662;SDS011;8445;51.270;9.434;2024-02-23T09:48:45;5.30;;;4.90;;
16662;SDS011;8445;51.270;9.434;2024-02-23T09:51:13;9.88;;;4.97;;
16662;SDS011;8445;51.270;9.434;2024-02-23T09:53:41;5.15;;;4.70;;
16662;SDS011;8445;51.270;9.434;2024-02-23T09:56:08;7.22;;;4.68;;
16662;SDS011;8445;51.270;9.434;2024-02-23T09:58:35;5.15;;;4.70;;
16662;SDS011;8445;51.270;9.434;2024-02-23T10:01:02;4.97;;;4.70;;
16662;SDS011;8445;51.270;9.434;2024-02-23T10:03:29;4.60;;;4.20;;
16662;SDS011;8445;51.270;9.434;2024-02-23T10:05:56;5.00;;;4.60;;
16662;SDS011;8445;51.270;9.434;2024-02-23T10:08:22;4.65;;;4.25;;
16662;SDS011;8445;51.270;9.434;2024-02-23T10:10:49;5.10;;;4.60;;
16662;SDS011;8445;51.270;9.434;2024-02-23T10:13:19;7.97;;;4.30;;
16662;SDS011;8445;51.270;9.434;2024-02-23T10:15:48;4.53;;;4.22;;
16662;SDS011;8445;51.270;9.434;2024-02-23T10:18:18;4.13;;;3.92;;
16662;SDS011;8445;51.270;9.434;2024-02-23T10:20:46;4.88;;;3.97;;
16662;SDS011;8445;51.270;9.434;2024-02-23T10:23:12;3.97;;;3.67;;
16662;SDS011;8445;51.270;9.434;2024-02-23T10:25:38;4.10;;;3.90;;
16662;SDS011;8445;51.270;9.434;2024-02-23T10:28:05;5.70;;;4.38;;
16662;SDS011;8445;51.270;9.434;2024-02-23T10:30:32;4.40;;;4.20;;
16662;SDS011;8445;51.270;9.434;2024-02-23T10:32:59;7.93;;;4.10;;
16662;SDS011;8445;51.270;9.434;2024-02-23T10:35:25;5.22;;;4.72;;
16662;SDS011;8445;51.270;9.434;2024-02-23T10:37:55;5.10;;;4.82;;
16662;SDS011;8445;51.270;9.434;2024-02-23T10:40:21;4.55;;;4.25;;
16662;SDS011;8445;51.270;9.434;2024-02-23T10:42:48;5.20;;;4.80;;
16662;SDS011;8445;51.270;9.434;2024-02-23T10:45:19;4.95;;;4.75;;
16662;SDS011;8445;51.270;9.434;2024-02-23T10:47:50;4.78;;;4.57;;
16662;SDS011;8445;51.270;9.434;2024-02-23T10:50:17;4.90;;;4.70;;
16662;SDS011;8445;51.270;9.434;2024-02-23T10:52:44;5.05;;;4.57;;
16662;SDS011;8445;51.270;9.434;2024-02-23T10:55:14;4.70;;;4.40;;
16662;SDS011;8445;51.270;9.434;2024-02-23T10:57:40;7.00;;;5.13;;
16662;SDS011;8445;51.270;9.434;2024-02-23T11:00:07;4.60;;;4.30;;
16662;SDS011;8445;51.270;9.434;2024-02-23T11:02:40;4.88;;;4.47;;
16662;SDS011;8445;51.270;9.434;2024-02-23T11:05:12;4.82;;;4.47;;
16662;SDS011;8445;51.270;9.434;2024-02-23T11:07:42;6.35;;;4.38;;
16662;SDS011;8445;51.270;9.434;2024-02-23T11:10:09;4.25;;;4.00;;
16662;SDS011;8445;51.270;9.434;2024-02-23T11:12:39;4.53;;;3.97;;
16662;SDS011;8445;51.270;9.434;2024-02-23T11:15:05;6.32;;;4.35;;
16662;SDS011;8445;51.270;9.434;2024-02-23T11:17:32;7.38;;;4.68;;
16662;SDS011;8445;51.270;9.434;2024-02-23T11:20:02;4.80;;;4.40;;
16662;SDS011;8445;51.270;9.434;2024-02-23T11:22:34;7.78;;;4.53;;
16662;SDS011;8445;51.270;9.434;2024-02-23T11:25:00;4.85;;;4.55;;
16662;SDS011;8445;51.270;9.434;2024-02-23T11:27:31;4.90;;;4.40;;
16662;SDS011;8445;51.270;9.434;2024-02-23T11:29:59;4.72;;;4.28;;
16662;SDS011;8445;51.270;9.434;2024-02-23T11:32:36;6.63;;;4.85;;
16662;SDS011;8445;51.270;9.434;2024-02-23T11:35:10;4.65;;;4.35;;
16662;SDS011;8445;51.270;9.434;2024-02-23T11:37:47;5.40;;;4.22;;
16662;SDS011;8445;51.270;9.434;2024-02-23T11:40:15;4.88;;;4.15;;
16662;SDS011;8445;51.270;9.434;2024-02-23T11:42:43;4.68;;;4.38;;
16662;SDS011;8445;51.270;9.434;2024-02-23T11:45:09;5.93;;;4.80;;
16662;SDS011;8445;51.270;9.434;2024-02-23T11:47:38;5.35;;;4.55;;
16662;SDS011;8445;51.270;9.434;2024-02-23T11:50:08;5.05;;;4.65;;
16662;SDS011;8445;51.270;9.434;2024-02-23T11:52:38;4.50;;;4.30;;
16662;SDS011;8445;51.270;9.434;2024-02-23T11:55:06;4.65;;;4.35;;
16662;SDS011;8445;51.270;9.434;2024-02-23T11:57:36;5.80;;;4.97;;
16662;SDS011;8445;51.270;9.434;2024-02-23T12:00:03;4.82;;;4.43;;
16662;SDS011;8445;51.270;9.434;2024-02-23T12:02:34;5.07;;;4.78;;
16662;SDS011;8445;51.270;9.434;2024-02-23T12:05:01;8.25;;;5.07;;
16662;SDS011;8445;51.270;9.434;2024-02-23T12:07:29;7.82;;;4.63;;
16662;SDS011;8445;51.270;9.434;2024-02-23T12:09:56;4.68;;;4.40;;
16662;SDS011;8445;51.270;9.434;2024-02-23T12:12:24;6.82;;;4.90;;
16662;SDS011;8445;51.270;9.434;2024-02-23T12:14:52;5.55;;;5.07;;
16662;SDS011;8445;51.270;9.434;2024-02-23T12:17:21;8.50;;;5.43;;
16662;SDS011;8445;51.270;9.434;2024-02-23T12:19:49;5.15;;;4.85;;
16662;SDS011;8445;51.270;9.434;2024-02-23T12:22:24;4.90;;;4.40;;
16662;SDS011;8445;51.270;9.434;2024-02-23T12:24:50;4.88;;;4.57;;
16662;SDS011;8445;51.270;9.434;2024-02-23T12:27:17;7.07;;;6.28;;
16662;SDS011;8445;51.270;9.434;2024-02-23T12:29:53;7.55;;;6.93;;
16662;SDS011;8445;51.270;9.434;2024-02-23T12:32:22;5.03;;;4.68;;
16662;SDS011;8445;51.270;9.434;2024-02-23T12:34:48;7.80;;;6.88;;
16662;SDS011;8445;51.270;9.434;2024-02-23T12:37:15;6.18;;;5.63;;
16662;SDS011;8445;51.270;9.434;2024-02-23T12:39:42;5.38;;;4.90;;
16662;SDS011;8445;51.270;9.434;2024-02-23T12:42:11;5.90;;;5.50;;
16662;SDS011;8445;51.270;9.434;2024-02-23T12:44:37;5.63;;;5.22;;
16662;SDS011;8445;51.270;9.434;2024-02-23T12:47:03;5.07;;;4.78;;
16662;SDS011;8445;51.270;9.434;2024-02-23T12:49:29;5.05;;;4.70;;
16662;SDS011;8445;51.270;9.434;2024-02-23T12:51:55;4.90;;;4.50;;
16662;SDS011;8445;51.270;9.434;2024-02-23T12:54:22;118.50;;;9.00;;
16662;SDS011;8445;51.270;9.434;2024-02-23T12:56:48;4.18;;;3.78;;
16662;SDS011;8445;51.270;9.434;2024-02-23T12:59:15;4.35;;;4.05;;
16662;SDS011;8445;51.270;9.434;2024-02-23T13:01:42;5.18;;;4.65;;
16662;SDS011;8445;51.270;9.434;2024-02-23T13:04:08;5.97;;;5.47;;
16662;SDS011;8445;51.270;9.434;2024-02-23T13:06:38;8.77;;;5.00;;
16662;SDS011;8445;51.270;9.434;2024-02-23T13:09:05;4.65;;;4.35;;
16662;SDS011;8445;51.270;9.434;2024-02-23T13:11:35;5.20;;;4.80;;
16662;SDS011;8445;51.270;9.434;2024-02-23T13:14:03;5.57;;;5.07;;
16662;SDS011;8445;51.270;9.434;2024-02-23T13:16:31;6.00;;;5.60;;
16662;SDS011;8445;51.270;9.434;2024-02-23T13:18:57;5.00;;;4.50;;
16662;SDS011;8445;51.270;9.434;2024-02-23T13:21:26;4.57;;;4.30;;
16662;SDS011;8445;51.270;9.434;2024-02-23T13:23:53;4.70;;;4.40;;
16662;SDS011;8445;51.270;9.434;2024-02-23T13:26:19;5.53;;;5.13;;
16662;SDS011;8445;51.270;9.434;2024-02-23T13:28:45;6.63;;;5.68;;
16662;SDS011;8445;51.270;9.434;2024-02-23T13:31:11;5.82;;;5.32;;
16662;SDS011;8445;51.270;9.434;2024-02-23T13:33:38;4.50;;;4.30;;
16662;SDS011;8445;51.270;9.434;2024-02-23T13:36:04;5.70;;;4.45;;
16662;SDS011;8445;51.270;9.434;2024-02-23T13:38:31;5.22;;;4.70;;
16662;SDS011;8445;51.270;9.434;2024-02-23T13:41:03;5.35;;;5.05;;
16662;SDS011;8445;51.270;9.434;2024-02-23T13:43:30;5.55;;;5.20;;
16662;SDS011;8445;51.270;9.434;2024-02-23T13:45:58;4.03;;;3.70;;
16662;SDS011;8445;51.270;9.434;2024-02-23T13:48:24;5.10;;;4.00;;
16662;SDS011;8445;51.270;9.434;2024-02-23T13:50:51;4.35;;;4.10;;
16662;SDS011;8445;51.270;9.434;2024-02-23T13:53:17;7.53;;;5.10;;
16662;SDS011;8445;51.270;9.434;2024-02-23T13:55:43;5.00;;;4.70;;
16662;SDS011;8445;51.270;9.434;2024-02-23T13:58:10;8.07;;;4.88;;
16662;SDS011;8445;51.270;9.434;2024-02-23T14:00:38;4.50;;;4.20;;
16662;SDS011;8445;51.270;9.434;2024-02-23T14:03:06;5.10;;;4.80;;
16662;SDS011;8445;51.270;9.434;2024-02-23T14:05:34;4.93;;;4.70;;
16662;SDS011;8445;51.270;9.434;2024-02-23T14:08:10;4.82;;;4.43;;
16662;SDS011;8445;51.270;9.434;2024-02-23T14:10:37;5.45;;;4.13;;
16662;SDS011;8445;51.270;9.434;2024-02-23T14:13:09;4.68;;;4.38;;
16662;SDS011;8445;51.270;9.434;2024-02-23T14:15:36;5.70;;;4.45;;
16662;SDS011;8445;51.270;9.434;2024-02-23T14:18:04;4.60;;;4.30;;
16662;SDS011;8445;51.270;9.434;2024-02-23T14:20:31;5.68;;;5.25;;
16662;SDS011;8445;51.270;9.434;2024-02-23T14:23:01;4.78;;;4.47;;
16662;SDS011;8445;51.270;9.434;2024-02-23T14:25:29;8.50;;;4.65;;
16662;SDS011;8445;51.270;9.434;2024-02-23T14:27:57;4.78;;;4.30;;
16662;SDS011;8445;51.270;9.434;2024-02-23T14:30:29;4.35;;;4.00;;
16662;SDS011;8445;51.270;9.434;2024-02-23T14:32:58;6.07;;;4.13;;
16662;SDS011;8445;51.270;9.434;2024-02-23T14:35:24;3.92;;;3.72;;
16662;SDS011;8445;51.270;9.434;2024-02-23T14:37:51;4.05;;;3.80;;
16662;SDS011;8445;51.270;9.434;2024-02-23T14:40:20;3.65;;;3.50;;
16662;SDS011;8445;51.270;9.434;2024-02-23T14:42:48;3.88;;;3.47;;
16662;SDS011;8445;51.270;9.434;2024-02-23T14:45:16;4.07;;;3.80;;
16662;SDS011;8445;51.270;9.434;2024-02-23T14:47:45;3.75;;;3.45;;
16662;SDS011;8445;51.270;9.434;2024-02-23T14:50:12;3.92;;;3.60;;
16662;SDS011;8445;51.270;9.434;2024-02-23T14:52:41;5.63;;;3.70;;
16662;SDS011;8445;51.270;9.434;2024-02-23T14:55:10;3.85;;;3.50;;
16662;SDS011;8445;51.270;9.434;2024-02-23T14:57:37;4.82;;;4.15;;
16662;SDS011;8445;51.270;9.434;2024-02-23T15:00:05;3.95;;;3.75;;